sensor_id;sensor_type;location;lat;lon;timestamp;P1;durP1;ratioP1;P2;durP2;ratioP2
22429;SDS011;11382;48.086;11.632;2023-09-07T00:02:14;5.88;;;4.55;;
22429;SDS011;11382;48.086;11.632;2023-09-07T00:04:51;6.68;;;5.00;;
22429;SDS011;11382;48.086;11.632;2023-09-07T00:07:19;5.72;;;4.90;;
22429;SDS011;11382;48.086;11.632;2023-09-07T00:09:47;6.80;;;4.60;;
22429;SDS011;11382;48.086;11.632;2023-09-07T00:12:15;7.25;;;4.50;;
22429;SDS011;11382;48.086;11.632;2023-09-07T00:14:43;5.88;;;4.82;;
22429;SDS011;11382;48.086;11.632;2023-09-07T00:17:12;5.85;;;5.03;;
22429;SDS011;11382;48.086;11.632;2023-09-07T00:19:41;5.20;;;4.68;;
22429;SDS011;11382;48.086;11.632;2023-09-07T00:22:09;8.57;;;5.38;;
22429;SDS011;11382;48.086;11.632;2023-09-07T00:24:37;5.70;;;4.72;;
22429;SDS011;11382;48.086;11.632;2023-09-07T00:27:05;6.32;;;4.63;;
22429;SDS011;11382;48.086;11.632;2023-09-07T00:29:34;7.47;;;4.93;;
22429;SDS011;11382;48.086;11.632;2023-09-07T00:32:02;6.15;;;5.05;;
22429;SDS011;11382;48.086;11.632;2023-09-07T00:34:33;5.72;;;4.60;;
22429;SDS011;11382;48.086;11.632;2023-09-07T00:37:01;7.28;;;5.63;;
22429;SDS011;11382;48.086;11.632;2023-09-07T00:39:29;7.28;;;5.13;;
22429;SDS011;11382;48.086;11.632;2023-09-07T00:41:57;7.05;;;5.47;;
22429;SDS011;11382;48.086;11.632;2023-09-07T00:44:25;6.47;;;5.75;;
22429;SDS011;11382;48.086;11.632;2023-09-07T00:46:53;8.20;;;5.85;;
22429;SDS011;11382;48.086;11.632;2023-09-07T00:49:21;9.00;;;6.03;;
22429;SDS011;11382;48.086;11.632;2023-09-07T00:51:50;7.15;;;5.32;;
22429;SDS011;11382;48.086;11.632;2023-09-07T00:54:19;6.22;;;4.90;;
22429;SDS011;11382;48.086;11.632;2023-09-07T00:56:48;8.02;;;5.35;;
22429;SDS011;11382;48.086;11.632;2023-09-07T00:59:17;6.25;;;4.93;;
22429;SDS011;11382;48.086;11.632;2023-09-07T01:01:45;7.15;;;5.28;;
22429;SDS011;11382;48.086;11.632;2023-09-07T01:04:17;7.30;;;5.50;;
22429;SDS011;11382;48.086;11.632;2023-09-07T01:06:47;8.45;;;5.75;;
22429;SDS011;11382;48.086;11.632;2023-09-07T01:09:21;5.30;;;4.80;;
22429;SDS011;11382;48.086;11.632;2023-09-07T01:11:52;6.90;;;5.25;;
22429;SDS011;11382;48.086;11.632;2023-09-07T01:14:20;6.18;;;4.80;;
22429;SDS011;11382;48.086;11.632;2023-09-07T01:16:49;7.20;;;5.80;;
22429;SDS011;11382;48.086;11.632;2023-09-07T01:19:17;6.80;;;5.18;;
22429;SDS011;11382;48.086;11.632;2023-09-07T01:21:47;7.40;;;5.10;;
22429;SDS011;11382;48.086;11.632;2023-09-07T01:24:17;7.15;;;5.45;;
22429;SDS011;11382;48.086;11.632;2023-09-07T01:26:45;6.50;;;4.80;;
22429;SDS011;11382;48.086;11.632;2023-09-07T01:29:15;6.05;;;4.70;;
22429;SDS011;11382;48.086;11.632;2023-09-07T01:31:44;5.68;;;4.93;;
22429;SDS011;11382;48.086;11.632;2023-09-07T01:34:12;7.40;;;5.00;;
22429;SDS011;11382;48.086;11.632;2023-09-07T01:36:41;6.03;;;5.13;;
22429;SDS011;11382;48.086;11.632;2023-09-07T01:39:10;6.93;;;5.32;;
22429;SDS011;11382;48.086;11.632;2023-09-07T01:41:38;6.28;;;5.03;;
22429;SDS011;11382;48.086;11.632;2023-09-07T01:44:06;8.75;;;6.00;;
22429;SDS011;11382;48.086;11.632;2023-09-07T01:46:35;6.60;;;5.38;;
22429;SDS011;11382;48.086;11.632;2023-09-07T01:49:03;7.75;;;5.63;;
22429;SDS011;11382;48.086;11.632;2023-09-07T01:51:32;6.07;;;5.13;;
22429;SDS011;11382;48.086;11.632;2023-09-07T01:54:01;7.38;;;5.30;;
22429;SDS011;11382;48.086;11.632;2023-09-07T01:56:31;6.63;;;4.85;;
22429;SDS011;11382;48.086;11.632;2023-09-07T01:58:59;7.40;;;5.65;;
22429;SDS011;11382;48.086;11.632;2023-09-07T02:01:29;6.38;;;5.22;;
22429;SDS011;11382;48.086;11.632;2023-09-07T02:04:03;7.90;;;4.95;;
22429;SDS011;11382;48.086;11.632;2023-09-07T02:06:31;9.25;;;5.28;;
22429;SDS011;11382;48.086;11.632;2023-09-07T02:08:59;6.70;;;4.53;;
22429;SDS011;11382;48.086;11.632;2023-09-07T02:11:27;8.27;;;5.20;;
22429;SDS011;11382;48.086;11.632;2023-09-07T02:13:56;6.60;;;4.55;;
22429;SDS011;11382;48.086;11.632;2023-09-07T02:16:24;6.15;;;4.88;;
22429;SDS011;11382;48.086;11.632;2023-09-07T02:19:00;6.05;;;4.50;;
22429;SDS011;11382;48.086;11.632;2023-09-07T02:21:29;5.20;;;4.13;;
22429;SDS011;11382;48.086;11.632;2023-09-07T02:23:57;5.65;;;4.85;;
22429;SDS011;11382;48.086;11.632;2023-09-07T02:26:25;7.57;;;4.50;;
22429;SDS011;11382;48.086;11.632;2023-09-07T02:28:53;6.20;;;4.75;;
22429;SDS011;11382;48.086;11.632;2023-09-07T02:31:23;7.00;;;5.07;;
22429;SDS011;11382;48.086;11.632;2023-09-07T02:33:52;6.03;;;4.80;;
22429;SDS011;11382;48.086;11.632;2023-09-07T02:36:20;7.40;;;4.68;;
22429;SDS011;11382;48.086;11.632;2023-09-07T02:38:48;7.18;;;4.88;;
22429;SDS011;11382;48.086;11.632;2023-09-07T02:41:16;6.10;;;4.80;;
22429;SDS011;11382;48.086;11.632;2023-09-07T02:43:44;7.00;;;5.03;;
22429;SDS011;11382;48.086;11.632;2023-09-07T02:46:12;6.20;;;4.78;;
22429;SDS011;11382;48.086;11.632;2023-09-07T02:48:42;6.80;;;5.15;;
22429;SDS011;11382;48.086;11.632;2023-09-07T02:51:10;5.88;;;4.75;;
22429;SDS011;11382;48.086;11.632;2023-09-07T02:53:40;7.18;;;4.50;;
22429;SDS011;11382;48.086;11.632;2023-09-07T02:56:08;8.48;;;5.40;;
22429;SDS011;11382;48.086;11.632;2023-09-07T02:58:38;5.10;;;4.25;;
22429;SDS011;11382;48.086;11.632;2023-09-07T03:01:06;6.20;;;4.40;;
22429;SDS011;11382;48.086;11.632;2023-09-07T03:03:36;6.45;;;4.25;;
22429;SDS011;11382;48.086;11.632;2023-09-07T03:06:10;8.97;;;4.97;;
22429;SDS011;11382;48.086;11.632;2023-09-07T03:08:41;6.73;;;4.93;;
22429;SDS011;11382;48.086;11.632;2023-09-07T03:11:09;5.88;;;4.75;;
22429;SDS011;11382;48.086;11.632;2023-09-07T03:13:38;7.53;;;5.10;;
22429;SDS011;11382;48.086;11.632;2023-09-07T03:16:06;8.20;;;4.68;;
22429;SDS011;11382;48.086;11.632;2023-09-07T03:18:34;8.05;;;5.90;;
22429;SDS011;11382;48.086;11.632;2023-09-07T03:21:03;8.45;;;5.78;;
22429;SDS011;11382;48.086;11.632;2023-09-07T03:23:33;9.18;;;5.43;;
22429;SDS011;11382;48.086;11.632;2023-09-07T03:26:02;8.38;;;5.40;;
22429;SDS011;11382;48.086;11.632;2023-09-07T03:28:30;6.57;;;5.43;;
22429;SDS011;11382;48.086;11.632;2023-09-07T03:31:00;6.82;;;4.63;;
22429;SDS011;11382;48.086;11.632;2023-09-07T03:33:28;6.22;;;5.22;;
22429;SDS011;11382;48.086;11.632;2023-09-07T03:35:56;9.23;;;5.25;;
22429;SDS011;11382;48.086;11.632;2023-09-07T03:38:25;6.47;;;4.95;;
22429;SDS011;11382;48.086;11.632;2023-09-07T03:40:55;6.78;;;5.05;;
22429;SDS011;11382;48.086;11.632;2023-09-07T03:43:23;5.90;;;4.93;;
22429;SDS011;11382;48.086;11.632;2023-09-07T03:45:51;5.32;;;4.70;;
22429;SDS011;11382;48.086;11.632;2023-09-07T03:48:19;5.75;;;4.90;;
22429;SDS011;11382;48.086;11.632;2023-09-07T03:50:47;7.13;;;4.80;;
22429;SDS011;11382;48.086;11.632;2023-09-07T03:53:15;6.32;;;4.97;;
22429;SDS011;11382;48.086;11.632;2023-09-07T03:55:44;7.60;;;5.38;;
22429;SDS011;11382;48.086;11.632;2023-09-07T03:58:16;5.85;;;5.20;;
22429;SDS011;11382;48.086;11.632;2023-09-07T04:00:45;5.68;;;5.00;;
22429;SDS011;11382;48.086;11.632;2023-09-07T04:03:13;7.57;;;5.00;;
22429;SDS011;11382;48.086;11.632;2023-09-07T04:05:41;6.88;;;5.65;;
22429;SDS011;11382;48.086;11.632;2023-09-07T04:08:09;7.22;;;5.30;;
22429;SDS011;11382;48.086;11.632;2023-09-07T04:10:37;8.68;;;5.53;;
22429;SDS011;11382;48.086;11.632;2023-09-07T04:13:05;6.10;;;5.10;;
22429;SDS011;11382;48.086;11.632;2023-09-07T04:15:42;6.28;;;4.88;;
22429;SDS011;11382;48.086;11.632;2023-09-07T04:18:11;9.25;;;5.32;;
22429;SDS011;11382;48.086;11.632;2023-09-07T04:20:42;8.15;;;5.65;;
22429;SDS011;11382;48.086;11.632;2023-09-07T04:23:11;6.95;;;5.13;;
22429;SDS011;11382;48.086;11.632;2023-09-07T04:25:39;6.30;;;5.20;;
22429;SDS011;11382;48.086;11.632;2023-09-07T04:28:07;7.80;;;5.10;;
22429;SDS011;11382;48.086;11.632;2023-09-07T04:30:37;8.55;;;4.88;;
22429;SDS011;11382;48.086;11.632;2023-09-07T04:33:06;6.03;;;5.13;;
22429;SDS011;11382;48.086;11.632;2023-09-07T04:35:36;6.43;;;4.88;;
22429;SDS011;11382;48.086;11.632;2023-09-07T04:38:06;6.82;;;5.15;;
22429;SDS011;11382;48.086;11.632;2023-09-07T04:40:34;7.25;;;5.15;;
22429;SDS011;11382;48.086;11.632;2023-09-07T04:43:02;5.70;;;4.95;;
22429;SDS011;11382;48.086;11.632;2023-09-07T04:45:30;7.72;;;5.53;;
22429;SDS011;11382;48.086;11.632;2023-09-07T04:47:58;8.20;;;5.50;;
22429;SDS011;11382;48.086;11.632;2023-09-07T04:50:30;13.88;;;5.40;;
22429;SDS011;11382;48.086;11.632;2023-09-07T04:52:58;6.30;;;4.95;;
22429;SDS011;11382;48.086;11.632;2023-09-07T04:55:26;5.95;;;5.25;;
22429;SDS011;11382;48.086;11.632;2023-09-07T04:57:54;6.60;;;4.50;;
22429;SDS011;11382;48.086;11.632;2023-09-07T05:00:22;5.65;;;4.80;;
22429;SDS011;11382;48.086;11.632;2023-09-07T05:02:50;6.45;;;5.35;;
22429;SDS011;11382;48.086;11.632;2023-09-07T05:05:19;6.28;;;5.55;;
22429;SDS011;11382;48.086;11.632;2023-09-07T05:07:48;5.75;;;4.95;;
22429;SDS011;11382;48.086;11.632;2023-09-07T05:10:16;8.40;;;4.93;;
22429;SDS011;11382;48.086;11.632;2023-09-07T05:12:45;5.07;;;4.57;;
22429;SDS011;11382;48.086;11.632;2023-09-07T05:15:13;9.85;;;5.95;;
22429;SDS011;11382;48.086;11.632;2023-09-07T05:17:41;6.65;;;5.22;;
22429;SDS011;11382;48.086;11.632;2023-09-07T05:20:09;7.57;;;5.18;;
22429;SDS011;11382;48.086;11.632;2023-09-07T05:22:38;6.90;;;5.90;;
22429;SDS011;11382;48.086;11.632;2023-09-07T05:25:09;7.70;;;5.50;;
22429;SDS011;11382;48.086;11.632;2023-09-07T05:27:40;5.10;;;4.60;;
22429;SDS011;11382;48.086;11.632;2023-09-07T05:30:09;7.43;;;5.20;;
22429;SDS011;11382;48.086;11.632;2023-09-07T05:32:38;7.32;;;5.20;;
22429;SDS011;11382;48.086;11.632;2023-09-07T05:35:08;7.53;;;4.75;;
22429;SDS011;11382;48.086;11.632;2023-09-07T05:37:38;6.07;;;4.90;;
22429;SDS011;11382;48.086;11.632;2023-09-07T05:40:07;10.15;;;4.90;;
22429;SDS011;11382;48.086;11.632;2023-09-07T05:42:37;6.03;;;5.28;;
22429;SDS011;11382;48.086;11.632;2023-09-07T05:45:06;6.93;;;4.88;;
22429;SDS011;11382;48.086;11.632;2023-09-07T05:47:35;6.43;;;5.05;;
22429;SDS011;11382;48.086;11.632;2023-09-07T05:50:04;6.55;;;5.00;;
22429;SDS011;11382;48.086;11.632;2023-09-07T05:52:32;5.57;;;4.97;;
22429;SDS011;11382;48.086;11.632;2023-09-07T05:55:01;5.40;;;4.90;;
22429;SDS011;11382;48.086;11.632;2023-09-07T05:57:30;7.40;;;5.40;;
22429;SDS011;11382;48.086;11.632;2023-09-07T05:59:58;7.43;;;5.30;;
22429;SDS011;11382;48.086;11.632;2023-09-07T06:02:27;6.38;;;4.88;;
22429;SDS011;11382;48.086;11.632;2023-09-07T06:04:55;6.32;;;5.45;;
22429;SDS011;11382;48.086;11.632;2023-09-07T06:07:23;6.32;;;5.47;;
22429;SDS011;11382;48.086;11.632;2023-09-07T06:09:51;9.05;;;5.78;;
22429;SDS011;11382;48.086;11.632;2023-09-07T06:12:20;7.63;;;5.80;;
22429;SDS011;11382;48.086;11.632;2023-09-07T06:14:50;9.93;;;6.18;;
22429;SDS011;11382;48.086;11.632;2023-09-07T06:17:18;8.00;;;6.07;;
22429;SDS011;11382;48.086;11.632;2023-09-07T06:19:46;8.98;;;6.53;;
22429;SDS011;11382;48.086;11.632;2023-09-07T06:22:15;6.95;;;6.25;;
22429;SDS011;11382;48.086;11.632;2023-09-07T06:24:43;10.48;;;6.32;;
22429;SDS011;11382;48.086;11.632;2023-09-07T06:27:11;9.18;;;6.72;;
22429;SDS011;11382;48.086;11.632;2023-09-07T06:29:39;10.15;;;6.57;;
22429;SDS011;11382;48.086;11.632;2023-09-07T06:32:09;8.57;;;5.93;;
22429;SDS011;11382;48.086;11.632;2023-09-07T06:34:38;11.18;;;6.43;;
22429;SDS011;11382;48.086;11.632;2023-09-07T06:37:07;6.97;;;6.28;;
22429;SDS011;11382;48.086;11.632;2023-09-07T06:39:35;7.65;;;5.88;;
22429;SDS011;11382;48.086;11.632;2023-09-07T06:42:03;7.00;;;6.15;;
22429;SDS011;11382;48.086;11.632;2023-09-07T06:44:39;7.68;;;6.05;;
22429;SDS011;11382;48.086;11.632;2023-09-07T06:47:07;7.47;;;5.78;;
22429;SDS011;11382;48.086;11.632;2023-09-07T06:49:38;7.18;;;6.32;;
22429;SDS011;11382;48.086;11.632;2023-09-07T06:52:07;8.07;;;6.45;;
22429;SDS011;11382;48.086;11.632;2023-09-07T06:54:37;13.48;;;6.75;;
22429;SDS011;11382;48.086;11.632;2023-09-07T06:57:06;7.70;;;6.90;;
22429;SDS011;11382;48.086;11.632;2023-09-07T06:59:35;8.05;;;6.55;;
22429;SDS011;11382;48.086;11.632;2023-09-07T07:02:03;7.95;;;6.97;;
22429;SDS011;11382;48.086;11.632;2023-09-07T07:04:32;8.35;;;7.22;;
22429;SDS011;11382;48.086;11.632;2023-09-07T07:07:03;9.15;;;6.68;;
22429;SDS011;11382;48.086;11.632;2023-09-07T07:09:32;8.90;;;6.72;;
22429;SDS011;11382;48.086;11.632;2023-09-07T07:12:01;9.77;;;7.13;;
22429;SDS011;11382;48.086;11.632;2023-09-07T07:14:32;8.68;;;7.10;;
22429;SDS011;11382;48.086;11.632;2023-09-07T07:17:00;8.40;;;7.22;;
22429;SDS011;11382;48.086;11.632;2023-09-07T07:19:32;8.82;;;7.57;;
22429;SDS011;11382;48.086;11.632;2023-09-07T07:22:01;10.50;;;7.85;;
22429;SDS011;11382;48.086;11.632;2023-09-07T07:24:33;8.13;;;7.32;;
22429;SDS011;11382;48.086;11.632;2023-09-07T07:27:01;10.65;;;8.55;;
22429;SDS011;11382;48.086;11.632;2023-09-07T07:29:32;10.75;;;8.15;;
22429;SDS011;11382;48.086;11.632;2023-09-07T07:32:02;10.32;;;7.38;;
22429;SDS011;11382;48.086;11.632;2023-09-07T07:34:31;8.07;;;6.82;;
22429;SDS011;11382;48.086;11.632;2023-09-07T07:37:00;7.82;;;6.82;;
22429;SDS011;11382;48.086;11.632;2023-09-07T07:39:29;8.73;;;7.68;;
22429;SDS011;11382;48.086;11.632;2023-09-07T07:41:58;8.00;;;7.10;;
22429;SDS011;11382;48.086;11.632;2023-09-07T07:44:26;7.30;;;6.60;;
22429;SDS011;11382;48.086;11.632;2023-09-07T07:46:54;7.53;;;5.90;;
22429;SDS011;11382;48.086;11.632;2023-09-07T07:49:23;6.57;;;5.93;;
22429;SDS011;11382;48.086;11.632;2023-09-07T07:51:51;6.80;;;6.10;;
22429;SDS011;11382;48.086;11.632;2023-09-07T07:54:21;6.28;;;5.50;;
22429;SDS011;11382;48.086;11.632;2023-09-07T07:56:54;6.57;;;5.97;;
22429;SDS011;11382;48.086;11.632;2023-09-07T07:59:22;6.63;;;6.03;;
22429;SDS011;11382;48.086;11.632;2023-09-07T08:01:50;6.53;;;5.88;;
22429;SDS011;11382;48.086;11.632;2023-09-07T08:04:19;6.18;;;5.68;;
22429;SDS011;11382;48.086;11.632;2023-09-07T08:06:47;6.15;;;5.55;;
22429;SDS011;11382;48.086;11.632;2023-09-07T08:09:15;9.40;;;5.07;;
22429;SDS011;11382;48.086;11.632;2023-09-07T08:11:44;5.63;;;5.00;;
22429;SDS011;11382;48.086;11.632;2023-09-07T08:14:14;5.82;;;5.30;;
22429;SDS011;11382;48.086;11.632;2023-09-07T08:16:42;6.03;;;5.30;;
22429;SDS011;11382;48.086;11.632;2023-09-07T08:19:10;5.43;;;4.93;;
22429;SDS011;11382;48.086;11.632;2023-09-07T08:21:38;5.68;;;5.10;;
22429;SDS011;11382;48.086;11.632;2023-09-07T08:24:08;7.20;;;5.45;;
22429;SDS011;11382;48.086;11.632;2023-09-07T08:26:36;6.95;;;4.97;;
22429;SDS011;11382;48.086;11.632;2023-09-07T08:29:07;5.95;;;5.45;;
22429;SDS011;11382;48.086;11.632;2023-09-07T08:31:38;7.38;;;4.88;;
22429;SDS011;11382;48.086;11.632;2023-09-07T08:34:07;5.88;;;4.60;;
22429;SDS011;11382;48.086;11.632;2023-09-07T08:36:37;6.40;;;5.53;;
22429;SDS011;11382;48.086;11.632;2023-09-07T08:39:05;5.75;;;4.90;;
22429;SDS011;11382;48.086;11.632;2023-09-07T08:41:36;5.68;;;4.90;;
22429;SDS011;11382;48.086;11.632;2023-09-07T08:44:26;5.95;;;4.88;;
22429;SDS011;11382;48.086;11.632;2023-09-07T08:46:57;7.88;;;5.10;;
22429;SDS011;11382;48.086;11.632;2023-09-07T08:49:27;5.90;;;4.60;;
22429;SDS011;11382;48.086;11.632;2023-09-07T08:51:57;8.48;;;5.03;;
22429;SDS011;11382;48.086;11.632;2023-09-07T08:54:27;5.60;;;4.93;;
22429;SDS011;11382;48.086;11.632;2023-09-07T08:56:56;6.18;;;5.18;;
22429;SDS011;11382;48.086;11.632;2023-09-07T08:59:25;5.70;;;5.20;;
22429;SDS011;11382;48.086;11.632;2023-09-07T09:01:57;5.38;;;4.80;;
22429;SDS011;11382;48.086;11.632;2023-09-07T09:04:26;5.95;;;5.35;;
22429;SDS011;11382;48.086;11.632;2023-09-07T09:06:55;7.03;;;5.57;;
22429;SDS011;11382;48.086;11.632;2023-09-07T09:09:25;5.70;;;4.82;;
22429;SDS011;11382;48.086;11.632;2023-09-07T09:11:53;7.63;;;5.22;;
22429;SDS011;11382;48.086;11.632;2023-09-07T09:14:21;6.28;;;5.22;;
22429;SDS011;11382;48.086;11.632;2023-09-07T09:16:49;6.38;;;5.22;;
22429;SDS011;11382;48.086;11.632;2023-09-07T09:19:29;5.75;;;5.15;;
22429;SDS011;11382;48.086;11.632;2023-09-07T09:22:00;6.20;;;5.50;;
22429;SDS011;11382;48.086;11.632;2023-09-07T09:24:31;7.07;;;5.28;;
22429;SDS011;11382;48.086;11.632;2023-09-07T09:27:00;5.47;;;4.85;;
22429;SDS011;11382;48.086;11.632;2023-09-07T09:29:28;7.68;;;5.45;;
22429;SDS011;11382;48.086;11.632;2023-09-07T09:31:56;4.90;;;4.50;;
22429;SDS011;11382;48.086;11.632;2023-09-07T09:34:26;5.35;;;4.85;;
22429;SDS011;11382;48.086;11.632;2023-09-07T09:36:55;6.05;;;5.15;;
22429;SDS011;11382;48.086;11.632;2023-09-07T09:39:24;5.93;;;5.35;;
22429;SDS011;11382;48.086;11.632;2023-09-07T09:41:52;6.72;;;5.20;;
22429;SDS011;11382;48.086;11.632;2023-09-07T09:44:22;5.80;;;4.82;;
22429;SDS011;11382;48.086;11.632;2023-09-07T09:46:52;5.88;;;5.20;;
22429;SDS011;11382;48.086;11.632;2023-09-07T09:49:22;5.40;;;4.90;;
22429;SDS011;11382;48.086;11.632;2023-09-07T09:51:53;5.10;;;4.63;;
22429;SDS011;11382;48.086;11.632;2023-09-07T09:54:23;7.10;;;5.10;;
22429;SDS011;11382;48.086;11.632;2023-09-07T09:56:53;6.38;;;5.15;;
22429;SDS011;11382;48.086;11.632;2023-09-07T09:59:21;6.80;;;5.13;;
22429;SDS011;11382;48.086;11.632;2023-09-07T10:01:49;5.60;;;4.78;;
22429;SDS011;11382;48.086;11.632;2023-09-07T10:04:20;5.10;;;4.50;;
22429;SDS011;11382;48.086;11.632;2023-09-07T10:06:50;9.88;;;4.72;;
22429;SDS011;11382;48.086;11.632;2023-09-07T10:09:22;6.22;;;5.30;;
22429;SDS011;11382;48.086;11.632;2023-09-07T10:11:51;5.57;;;5.07;;
22429;SDS011;11382;48.086;11.632;2023-09-07T10:14:21;7.03;;;4.82;;
22429;SDS011;11382;48.086;11.632;2023-09-07T10:16:50;7.15;;;4.90;;
22429;SDS011;11382;48.086;11.632;2023-09-07T10:19:22;5.68;;;5.10;;
22429;SDS011;11382;48.086;11.632;2023-09-07T10:21:52;8.07;;;5.18;;
22429;SDS011;11382;48.086;11.632;2023-09-07T10:24:26;5.38;;;4.88;;
22429;SDS011;11382;48.086;11.632;2023-09-07T10:26:56;5.45;;;4.95;;
22429;SDS011;11382;48.086;11.632;2023-09-07T10:29:25;4.75;;;4.35;;
22429;SDS011;11382;48.086;11.632;2023-09-07T10:31:56;6.22;;;4.88;;
22429;SDS011;11382;48.086;11.632;2023-09-07T10:34:36;5.20;;;4.53;;
22429;SDS011;11382;48.086;11.632;2023-09-07T10:37:05;7.07;;;4.97;;
22429;SDS011;11382;48.086;11.632;2023-09-07T10:39:38;5.15;;;4.70;;
22429;SDS011;11382;48.086;11.632;2023-09-07T10:42:19;7.95;;;4.97;;
22429;SDS011;11382;48.086;11.632;2023-09-07T10:44:48;5.13;;;4.63;;
22429;SDS011;11382;48.086;11.632;2023-09-07T10:47:16;7.60;;;5.20;;
22429;SDS011;11382;48.086;11.632;2023-09-07T10:49:44;7.43;;;5.22;;
22429;SDS011;11382;48.086;11.632;2023-09-07T10:52:13;5.50;;;5.00;;
22429;SDS011;11382;48.086;11.632;2023-09-07T10:54:42;5.20;;;4.70;;
22429;SDS011;11382;48.086;11.632;2023-09-07T10:57:11;6.38;;;5.20;;
22429;SDS011;11382;48.086;11.632;2023-09-07T10:59:44;5.88;;;5.00;;
22429;SDS011;11382;48.086;11.632;2023-09-07T11:04:43;5.20;;;4.70;;
22429;SDS011;11382;48.086;11.632;2023-09-07T11:07:11;5.20;;;4.70;;
22429;SDS011;11382;48.086;11.632;2023-09-07T11:09:40;13.35;;;4.82;;
22429;SDS011;11382;48.086;11.632;2023-09-07T11:12:12;5.45;;;4.70;;
22429;SDS011;11382;48.086;11.632;2023-09-07T11:14:42;5.43;;;4.93;;
22429;SDS011;11382;48.086;11.632;2023-09-07T11:17:10;5.20;;;4.70;;
22429;SDS011;11382;48.086;11.632;2023-09-07T11:19:38;5.28;;;4.65;;
22429;SDS011;11382;48.086;11.632;2023-09-07T11:22:09;6.43;;;4.90;;
22429;SDS011;11382;48.086;11.632;2023-09-07T11:24:38;5.75;;;4.78;;
22429;SDS011;11382;48.086;11.632;2023-09-07T11:27:09;5.30;;;4.80;;
22429;SDS011;11382;48.086;11.632;2023-09-07T11:29:37;5.28;;;4.65;;
22429;SDS011;11382;48.086;11.632;2023-09-07T11:32:06;6.15;;;4.80;;
22429;SDS011;11382;48.086;11.632;2023-09-07T11:34:35;5.40;;;4.95;;
22429;SDS011;11382;48.086;11.632;2023-09-07T11:37:15;5.80;;;4.93;;
22429;SDS011;11382;48.086;11.632;2023-09-07T11:39:43;5.05;;;4.63;;
22429;SDS011;11382;48.086;11.632;2023-09-07T11:42:13;8.35;;;5.20;;
22429;SDS011;11382;48.086;11.632;2023-09-07T11:44:42;5.43;;;4.57;;
22429;SDS011;11382;48.086;11.632;2023-09-07T11:47:10;5.13;;;4.60;;
22429;SDS011;11382;48.086;11.632;2023-09-07T11:49:38;6.32;;;5.00;;
22429;SDS011;11382;48.086;11.632;2023-09-07T11:52:11;5.25;;;4.65;;
22429;SDS011;11382;48.086;11.632;2023-09-07T11:54:39;7.28;;;4.50;;
22429;SDS011;11382;48.086;11.632;2023-09-07T11:58:12;8.23;;;5.07;;
22429;SDS011;11382;48.086;11.632;2023-09-07T12:01:05;7.43;;;5.20;;
22429;SDS011;11382;48.086;11.632;2023-09-07T12:03:33;7.57;;;5.40;;
22429;SDS011;11382;48.086;11.632;2023-09-07T12:06:02;37.80;;;6.97;;
22429;SDS011;11382;48.086;11.632;2023-09-07T12:08:36;5.35;;;4.85;;
22429;SDS011;11382;48.086;11.632;2023-09-07T12:11:04;6.05;;;5.38;;
22429;SDS011;11382;48.086;11.632;2023-09-07T12:13:34;7.93;;;5.00;;
22429;SDS011;11382;48.086;11.632;2023-09-07T12:16:08;7.82;;;5.25;;
22429;SDS011;11382;48.086;11.632;2023-09-07T12:18:36;8.43;;;5.47;;
22429;SDS011;11382;48.086;11.632;2023-09-07T12:21:05;9.30;;;5.10;;
22429;SDS011;11382;48.086;11.632;2023-09-07T12:23:34;8.43;;;4.68;;
22429;SDS011;11382;48.086;11.632;2023-09-07T12:26:02;5.95;;;5.10;;
22429;SDS011;11382;48.086;11.632;2023-09-07T12:28:30;8.15;;;5.63;;
22429;SDS011;11382;48.086;11.632;2023-09-07T12:31:00;7.05;;;5.43;;
22429;SDS011;11382;48.086;11.632;2023-09-07T12:33:29;7.63;;;5.35;;
22429;SDS011;11382;48.086;11.632;2023-09-07T12:35:57;9.15;;;5.30;;
22429;SDS011;11382;48.086;11.632;2023-09-07T12:38:26;35.92;;;7.45;;
22429;SDS011;11382;48.086;11.632;2023-09-07T12:40:55;10.10;;;5.55;;
22429;SDS011;11382;48.086;11.632;2023-09-07T12:43:23;6.22;;;5.45;;
22429;SDS011;11382;48.086;11.632;2023-09-07T12:45:52;5.78;;;4.65;;
22429;SDS011;11382;48.086;11.632;2023-09-07T12:48:21;7.30;;;5.10;;
22429;SDS011;11382;48.086;11.632;2023-09-07T12:50:49;6.07;;;4.68;;
22429;SDS011;11382;48.086;11.632;2023-09-07T12:53:17;6.10;;;4.90;;
22429;SDS011;11382;48.086;11.632;2023-09-07T12:55:47;6.50;;;5.15;;
22429;SDS011;11382;48.086;11.632;2023-09-07T12:58:15;5.50;;;5.00;;
22429;SDS011;11382;48.086;11.632;2023-09-07T13:00:44;8.77;;;5.10;;
22429;SDS011;11382;48.086;11.632;2023-09-07T13:03:14;5.82;;;4.97;;
22429;SDS011;11382;48.086;11.632;2023-09-07T13:05:43;5.13;;;4.63;;
22429;SDS011;11382;48.086;11.632;2023-09-07T13:08:12;7.07;;;4.93;;
22429;SDS011;11382;48.086;11.632;2023-09-07T13:10:40;4.90;;;4.40;;
22429;SDS011;11382;48.086;11.632;2023-09-07T13:13:08;6.25;;;4.82;;
22429;SDS011;11382;48.086;11.632;2023-09-07T13:15:36;8.63;;;4.78;;
22429;SDS011;11382;48.086;11.632;2023-09-07T13:18:04;6.63;;;4.88;;
22429;SDS011;11382;48.086;11.632;2023-09-07T13:20:32;5.70;;;5.15;;
22429;SDS011;11382;48.086;11.632;2023-09-07T13:23:01;4.88;;;4.40;;
22429;SDS011;11382;48.086;11.632;2023-09-07T13:25:29;7.45;;;4.82;;
22429;SDS011;11382;48.086;11.632;2023-09-07T13:27:57;10.73;;;4.88;;
22429;SDS011;11382;48.086;11.632;2023-09-07T13:30:27;5.82;;;4.38;;
22429;SDS011;11382;48.086;11.632;2023-09-07T13:32:55;7.32;;;4.80;;
22429;SDS011;11382;48.086;11.632;2023-09-07T13:35:23;5.03;;;4.53;;
22429;SDS011;11382;48.086;11.632;2023-09-07T13:37:51;5.43;;;4.57;;
22429;SDS011;11382;48.086;11.632;2023-09-07T13:40:21;5.80;;;4.50;;
22429;SDS011;11382;48.086;11.632;2023-09-07T13:42:50;5.05;;;4.57;;
22429;SDS011;11382;48.086;11.632;2023-09-07T13:45:18;5.22;;;4.40;;
22429;SDS011;11382;48.086;11.632;2023-09-07T13:47:47;5.68;;;4.22;;
22429;SDS011;11382;48.086;11.632;2023-09-07T13:50:15;6.13;;;4.03;;
22429;SDS011;11382;48.086;11.632;2023-09-07T13:52:44;4.72;;;4.25;;
22429;SDS011;11382;48.086;11.632;2023-09-07T13:55:12;5.10;;;4.10;;
22429;SDS011;11382;48.086;11.632;2023-09-07T13:57:41;5.05;;;4.45;;
22429;SDS011;11382;48.086;11.632;2023-09-07T14:00:10;6.68;;;4.20;;
22429;SDS011;11382;48.086;11.632;2023-09-07T14:02:39;4.57;;;3.72;;
22429;SDS011;11382;48.086;11.632;2023-09-07T14:05:07;6.07;;;4.03;;
22429;SDS011;11382;48.086;11.632;2023-09-07T14:07:39;6.13;;;4.13;;
22429;SDS011;11382;48.086;11.632;2023-09-07T14:10:07;7.30;;;4.45;;
22429;SDS011;11382;48.086;11.632;2023-09-07T14:12:36;5.80;;;4.47;;
22429;SDS011;11382;48.086;11.632;2023-09-07T14:15:05;6.15;;;4.55;;
22429;SDS011;11382;48.086;11.632;2023-09-07T14:17:34;6.82;;;4.25;;
22429;SDS011;11382;48.086;11.632;2023-09-07T14:20:02;5.22;;;4.28;;
22429;SDS011;11382;48.086;11.632;2023-09-07T14:22:31;7.65;;;4.45;;
22429;SDS011;11382;48.086;11.632;2023-09-07T14:24:59;4.90;;;4.25;;
22429;SDS011;11382;48.086;11.632;2023-09-07T14:27:27;10.43;;;4.53;;
22429;SDS011;11382;48.086;11.632;2023-09-07T14:29:55;5.63;;;3.83;;
22429;SDS011;11382;48.086;11.632;2023-09-07T14:32:24;4.65;;;3.75;;
22429;SDS011;11382;48.086;11.632;2023-09-07T14:34:53;4.75;;;3.92;;
22429;SDS011;11382;48.086;11.632;2023-09-07T14:37:21;6.00;;;4.28;;
22429;SDS011;11382;48.086;11.632;2023-09-07T14:39:49;5.07;;;3.83;;
22429;SDS011;11382;48.086;11.632;2023-09-07T14:42:22;5.63;;;4.20;;
22429;SDS011;11382;48.086;11.632;2023-09-07T14:44:50;16.75;;;5.47;;
22429;SDS011;11382;48.086;11.632;2023-09-07T14:47:19;8.10;;;4.28;;
22429;SDS011;11382;48.086;11.632;2023-09-07T14:49:53;6.45;;;4.07;;